sensor_id;sensor_type;location;lat;lon;timestamp;pressure;altitude;pressure_sealevel;temperature;humidity
62942;BME280;49042;47.318;19.874;2024-02-28T00:01:53;100473.50;;;11.09;100.00
62942;BME280;49042;47.318;19.874;2024-02-28T00:04:55;100480.06;;;10.96;100.00
62942;BME280;49042;47.318;19.874;2024-02-28T00:07:57;100480.50;;;10.80;100.00
62942;BME280;49042;47.318;19.874;2024-02-28T00:10:58;100478.22;;;10.62;100.00
62942;BME280;49042;47.318;19.874;2024-02-28T00:14:00;100477.28;;;10.60;100.00
62942;BME280;49042;47.318;19.874;2024-02-28T00:17:03;100482.53;;;10.35;100.00
62942;BME280;49042;47.318;19.874;2024-02-28T00:20:05;100477.72;;;10.20;100.00
62942;BME280;49042;47.318;19.874;2024-02-28T00:23:07;100477.13;;;10.29;100.00
62942;BME280;49042;47.318;19.874;2024-02-28T00:26:12;100481.34;;;10.25;100.00
62942;BME280;49042;47.318;19.874;2024-02-28T00:29:13;100476.81;;;10.46;100.00
62942;BME280;49042;47.318;19.874;2024-02-28T00:32:15;100481.75;;;10.64;100.00
62942;BME280;49042;47.318;19.874;2024-02-28T00:35:17;100487.28;;;10.75;100.00
62942;BME280;49042;47.318;19.874;2024-02-28T00:38:18;100495.44;;;10.85;100.00
62942;BME280;49042;47.318;19.874;2024-02-28T00:41:20;100488.81;;;10.67;100.00
62942;BME280;49042;47.318;19.874;2024-02-28T00:44:22;100493.31;;;10.46;100.00
62942;BME280;49042;47.318;19.874;2024-02-28T00:47:23;100492.28;;;10.13;100.00
62942;BME280;49042;47.318;19.874;2024-02-28T00:50:25;100493.38;;;10.20;100.00
62942;BME280;49042;47.318;19.874;2024-02-28T00:53:27;100494.41;;;9.99;100.00
62942;BME280;49042;47.318;19.874;2024-02-28T00:56:30;100490.06;;;9.73;100.00
62942;BME280;49042;47.318;19.874;2024-02-28T00:59:32;100494.66;;;9.81;100.00
62942;BME280;49042;47.318;19.874;2024-02-28T01:02:33;100504.38;;;9.87;100.00
62942;BME280;49042;47.318;19.874;2024-02-28T01:05:35;100495.59;;;9.83;100.00
62942;BME280;49042;47.318;19.874;2024-02-28T01:08:37;100502.66;;;9.61;100.00
62942;BME280;49042;47.318;19.874;2024-02-28T01:11:39;100511.19;;;9.57;100.00
62942;BME280;49042;47.318;19.874;2024-02-28T01:14:41;100502.88;;;9.42;100.00
62942;BME280;49042;47.318;19.874;2024-02-28T01:17:42;100508.91;;;9.41;100.00
62942;BME280;49042;47.318;19.874;2024-02-28T01:20:44;100504.06;;;9.28;100.00
62942;BME280;49042;47.318;19.874;2024-02-28T01:23:46;100498.47;;;9.41;100.00
62942;BME280;49042;47.318;19.874;2024-02-28T01:26:48;100494.37;;;9.48;100.00
62942;BME280;49042;47.318;19.874;2024-02-28T01:29:49;100501.03;;;9.40;100.00
62942;BME280;49042;47.318;19.874;2024-02-28T01:32:51;100504.22;;;9.08;100.00
62942;BME280;49042;47.318;19.874;2024-02-28T01:35:53;100504.19;;;9.31;100.00
62942;BME280;49042;47.318;19.874;2024-02-28T01:38:58;100502.94;;;9.21;100.00
62942;BME280;49042;47.318;19.874;2024-02-28T01:42:00;100509.16;;;9.25;100.00
62942;BME280;49042;47.318;19.874;2024-02-28T01:45:02;100509.94;;;9.22;100.00
62942;BME280;49042;47.318;19.874;2024-02-28T01:48:06;100514.25;;;9.21;100.00
62942;BME280;49042;47.318;19.874;2024-02-28T01:51:08;100509.31;;;9.29;100.00
62942;BME280;49042;47.318;19.874;2024-02-28T01:54:10;100503.47;;;9.12;100.00
62942;BME280;49042;47.318;19.874;2024-02-28T01:57:12;100511.53;;;9.18;100.00
62942;BME280;49042;47.318;19.874;2024-02-28T02:00:15;100505.59;;;9.23;100.00
62942;BME280;49042;47.318;19.874;2024-02-28T02:03:18;100509.69;;;9.16;100.00
62942;BME280;49042;47.318;19.874;2024-02-28T02:06:20;100522.72;;;8.93;100.00
62942;BME280;49042;47.318;19.874;2024-02-28T02:09:22;100517.63;;;8.96;100.00
62942;BME280;49042;47.318;19.874;2024-02-28T02:12:24;100522.28;;;9.05;100.00
62942;BME280;49042;47.318;19.874;2024-02-28T02:15:25;100511.25;;;9.10;100.00
62942;BME280;49042;47.318;19.874;2024-02-28T02:18:27;100519.25;;;8.71;100.00
62942;BME280;49042;47.318;19.874;2024-02-28T02:21:37;100525.88;;;8.85;100.00
62942;BME280;49042;47.318;19.874;2024-02-28T02:24:40;100526.19;;;8.93;100.00
62942;BME280;49042;47.318;19.874;2024-02-28T02:27:41;100513.88;;;8.89;100.00
62942;BME280;49042;47.318;19.874;2024-02-28T02:30:43;100524.75;;;8.78;100.00
62942;BME280;49042;47.318;19.874;2024-02-28T02:33:45;100532.63;;;8.59;100.00
62942;BME280;49042;47.318;19.874;2024-02-28T02:36:47;100534.25;;;8.56;100.00
62942;BME280;49042;47.318;19.874;2024-02-28T02:39:49;100529.38;;;8.86;100.00
62942;BME280;49042;47.318;19.874;2024-02-28T02:42:50;100525.72;;;9.04;100.00
62942;BME280;49042;47.318;19.874;2024-02-28T02:45:52;100530.69;;;8.97;100.00
62942;BME280;49042;47.318;19.874;2024-02-28T02:48:55;100531.56;;;8.98;100.00
62942;BME280;49042;47.318;19.874;2024-02-28T02:51:56;100528.13;;;8.99;100.00
62942;BME280;49042;47.318;19.874;2024-02-28T02:54:58;100525.53;;;8.99;100.00
62942;BME280;49042;47.318;19.874;2024-02-28T02:58:00;100529.38;;;9.09;100.00
62942;BME280;49042;47.318;19.874;2024-02-28T03:01:02;100538.78;;;9.28;100.00
62942;BME280;49042;47.318;19.874;2024-02-28T03:04:04;100530.09;;;9.28;100.00
62942;BME280;49042;47.318;19.874;2024-02-28T03:07:06;100542.09;;;9.24;100.00
62942;BME280;49042;47.318;19.874;2024-02-28T03:10:08;100534.97;;;9.18;100.00
62942;BME280;49042;47.318;19.874;2024-02-28T03:13:11;100539.69;;;9.29;100.00
62942;BME280;49042;47.318;19.874;2024-02-28T03:16:13;100539.19;;;9.16;100.00
62942;BME280;49042;47.318;19.874;2024-02-28T03:19:16;100548.72;;;8.93;100.00
62942;BME280;49042;47.318;19.874;2024-02-28T03:22:18;100542.37;;;9.09;100.00
62942;BME280;49042;47.318;19.874;2024-02-28T03:25:19;100542.50;;;9.12;100.00
62942;BME280;49042;47.318;19.874;2024-02-28T03:28:21;100549.44;;;9.12;100.00
62942;BME280;49042;47.318;19.874;2024-02-28T03:31:23;100553.50;;;9.05;100.00
62942;BME280;49042;47.318;19.874;2024-02-28T03:34:24;100549.44;;;9.12;100.00
62942;BME280;49042;47.318;19.874;2024-02-28T03:37:26;100554.44;;;9.30;100.00
62942;BME280;49042;47.318;19.874;2024-02-28T03:40:28;100551.69;;;9.25;100.00
62942;BME280;49042;47.318;19.874;2024-02-28T03:43:30;100552.59;;;9.26;100.00
62942;BME280;49042;47.318;19.874;2024-02-28T03:46:31;100559.84;;;9.12;100.00
62942;BME280;49042;47.318;19.874;2024-02-28T03:49:33;100550.91;;;9.28;100.00
62942;BME280;49042;47.318;19.874;2024-02-28T03:52:35;100556.91;;;9.25;100.00
62942;BME280;49042;47.318;19.874;2024-02-28T03:55:37;100562.56;;;9.15;100.00
62942;BME280;49042;47.318;19.874;2024-02-28T03:58:40;100558.75;;;9.29;100.00
62942;BME280;49042;47.318;19.874;2024-02-28T04:01:42;100571.25;;;9.38;100.00
62942;BME280;49042;47.318;19.874;2024-02-28T04:04:43;100575.16;;;9.27;100.00
62942;BME280;49042;47.318;19.874;2024-02-28T04:07:45;100570.25;;;9.35;100.00
62942;BME280;49042;47.318;19.874;2024-02-28T04:10:47;100570.84;;;9.50;100.00
62942;BME280;49042;47.318;19.874;2024-02-28T04:13:48;100574.28;;;9.49;100.00
62942;BME280;49042;47.318;19.874;2024-02-28T04:16:50;100586.94;;;9.40;100.00
62942;BME280;49042;47.318;19.874;2024-02-28T04:19:52;100579.00;;;9.37;100.00
62942;BME280;49042;47.318;19.874;2024-02-28T04:22:54;100575.94;;;9.24;100.00
62942;BME280;49042;47.318;19.874;2024-02-28T04:25:55;100587.94;;;9.43;100.00
62942;BME280;49042;47.318;19.874;2024-02-28T04:28:57;100586.31;;;9.47;100.00
62942;BME280;49042;47.318;19.874;2024-02-28T04:31:59;100579.84;;;9.36;100.00
62942;BME280;49042;47.318;19.874;2024-02-28T04:35:01;100583.03;;;9.28;100.00
62942;BME280;49042;47.318;19.874;2024-02-28T04:38:02;100592.38;;;9.46;100.00
62942;BME280;49042;47.318;19.874;2024-02-28T04:41:04;100591.06;;;9.58;100.00
62942;BME280;49042;47.318;19.874;2024-02-28T04:44:06;100589.97;;;9.28;100.00
62942;BME280;49042;47.318;19.874;2024-02-28T04:47:08;100580.91;;;9.41;100.00
62942;BME280;49042;47.318;19.874;2024-02-28T04:50:10;100578.84;;;9.32;100.00
62942;BME280;49042;47.318;19.874;2024-02-28T04:53:12;100581.38;;;9.30;100.00
62942;BME280;49042;47.318;19.874;2024-02-28T04:56:14;100591.78;;;9.30;100.00
62942;BME280;49042;47.318;19.874;2024-02-28T04:59:15;100591.84;;;9.32;100.00
62942;BME280;49042;47.318;19.874;2024-02-28T05:02:18;100591.31;;;9.18;100.00
62942;BME280;49042;47.318;19.874;2024-02-28T05:05:23;100590.88;;;9.30;100.00
62942;BME280;49042;47.318;19.874;2024-02-28T05:08:24;100596.84;;;9.26;100.00
62942;BME280;49042;47.318;19.874;2024-02-28T05:11:26;100596.63;;;9.21;100.00
62942;BME280;49042;47.318;19.874;2024-02-28T05:14:28;100598.00;;;9.11;100.00
62942;BME280;49042;47.318;19.874;2024-02-28T05:17:30;100603.88;;;9.28;100.00
62942;BME280;49042;47.318;19.874;2024-02-28T05:20:31;100609.09;;;9.30;100.00
62942;BME280;49042;47.318;19.874;2024-02-28T05:23:33;100614.75;;;9.18;100.00
62942;BME280;49042;47.318;19.874;2024-02-28T05:26:35;100609.53;;;9.18;100.00
62942;BME280;49042;47.318;19.874;2024-02-28T05:29:37;100608.69;;;9.19;100.00
62942;BME280;49042;47.318;19.874;2024-02-28T05:32:39;100611.75;;;9.08;100.00
62942;BME280;49042;47.318;19.874;2024-02-28T05:35:40;100613.50;;;9.08;100.00
62942;BME280;49042;47.318;19.874;2024-02-28T05:38:42;100616.37;;;9.16;100.00
62942;BME280;49042;47.318;19.874;2024-02-28T05:41:44;100607.44;;;9.09;100.00
62942;BME280;49042;47.318;19.874;2024-02-28T05:44:46;100620.84;;;9.18;100.00
62942;BME280;49042;47.318;19.874;2024-02-28T05:47:48;100619.81;;;9.38;100.00
62942;BME280;49042;47.318;19.874;2024-02-28T05:50:49;100621.13;;;9.26;100.00
62942;BME280;49042;47.318;19.874;2024-02-28T05:53:51;100624.56;;;9.25;100.00
62942;BME280;49042;47.318;19.874;2024-02-28T05:56:53;100626.31;;;9.26;100.00
62942;BME280;49042;47.318;19.874;2024-02-28T05:59:54;100626.75;;;9.14;100.00
62942;BME280;49042;47.318;19.874;2024-02-28T06:02:56;100632.09;;;9.19;100.00
62942;BME280;49042;47.318;19.874;2024-02-28T06:05:58;100629.87;;;9.28;100.00
62942;BME280;49042;47.318;19.874;2024-02-28T06:09:00;100636.22;;;9.35;100.00
62942;BME280;49042;47.318;19.874;2024-02-28T06:12:01;100639.59;;;9.56;100.00
62942;BME280;49042;47.318;19.874;2024-02-28T06:15:04;100634.31;;;9.54;100.00
62942;BME280;49042;47.318;19.874;2024-02-28T06:18:06;100647.72;;;9.63;100.00
62942;BME280;49042;47.318;19.874;2024-02-28T06:21:08;100652.50;;;9.52;100.00
62942;BME280;49042;47.318;19.874;2024-02-28T06:24:09;100649.59;;;9.68;100.00
62942;BME280;49042;47.318;19.874;2024-02-28T06:27:11;100647.72;;;9.63;100.00
62942;BME280;49042;47.318;19.874;2024-02-28T06:30:16;100649.59;;;9.68;100.00
62942;BME280;49042;47.318;19.874;2024-02-28T06:33:18;100645.66;;;10.02;100.00
62942;BME280;49042;47.318;19.874;2024-02-28T06:36:20;100650.25;;;10.10;100.00
62942;BME280;49042;47.318;19.874;2024-02-28T06:39:22;100653.44;;;9.78;100.00
62942;BME280;49042;47.318;19.874;2024-02-28T06:42:24;100660.09;;;9.94;100.00
62942;BME280;49042;47.318;19.874;2024-02-28T06:45:26;100659.22;;;10.18;100.00
62942;BME280;49042;47.318;19.874;2024-02-28T06:48:28;100654.13;;;10.21;100.00
62942;BME280;49042;47.318;19.874;2024-02-28T06:51:30;100667.50;;;10.31;100.00
62942;BME280;49042;47.318;19.874;2024-02-28T06:54:32;100665.50;;;10.23;100.00
62942;BME280;49042;47.318;19.874;2024-02-28T06:57:34;100662.34;;;10.57;100.00
62942;BME280;49042;47.318;19.874;2024-02-28T07:00:35;100662.69;;;10.42;100.00
62942;BME280;49042;47.318;19.874;2024-02-28T07:03:37;100664.91;;;10.55;100.00
62942;BME280;49042;47.318;19.874;2024-02-28T07:06:39;100664.56;;;10.70;100.00
62942;BME280;49042;47.318;19.874;2024-02-28T07:09:41;100668.47;;;10.84;100.00
62942;BME280;49042;47.318;19.874;2024-02-28T07:12:43;100667.59;;;11.11;100.00
62942;BME280;49042;47.318;19.874;2024-02-28T07:15:45;100675.22;;;11.05;100.00
62942;BME280;49042;47.318;19.874;2024-02-28T07:18:47;100680.72;;;11.40;100.00
62942;BME280;49042;47.318;19.874;2024-02-28T07:21:48;100683.16;;;11.35;100.00
62942;BME280;49042;47.318;19.874;2024-02-28T07:24:50;100685.31;;;11.20;100.00
62942;BME280;49042;47.318;19.874;2024-02-28T07:27:52;100685.84;;;11.66;100.00
62942;BME280;49042;47.318;19.874;2024-02-28T07:30:54;100683.38;;;11.71;100.00
62942;BME280;49042;47.318;19.874;2024-02-28T07:33:56;100682.69;;;11.48;100.00
62942;BME280;49042;47.318;19.874;2024-02-28T07:36:57;100681.31;;;11.61;100.00
62942;BME280;49042;47.318;19.874;2024-02-28T07:39:59;100681.63;;;12.01;100.00
62942;BME280;49042;47.318;19.874;2024-02-28T07:43:03;100684.94;;;11.95;100.00
62942;BME280;49042;47.318;19.874;2024-02-28T07:46:08;100688.19;;;12.48;100.00
62942;BME280;49042;47.318;19.874;2024-02-28T07:49:11;100681.28;;;12.52;100.00
62942;BME280;49042;47.318;19.874;2024-02-28T07:52:13;100688.53;;;12.62;100.00
62942;BME280;49042;47.318;19.874;2024-02-28T07:55:15;100694.22;;;12.80;100.00
62942;BME280;49042;47.318;19.874;2024-02-28T07:58:17;100679.53;;;13.22;100.00
62942;BME280;49042;47.318;19.874;2024-02-28T08:01:18;100680.25;;;12.79;100.00
62942;BME280;49042;47.318;19.874;2024-02-28T08:04:20;100682.56;;;12.67;100.00
62942;BME280;49042;47.318;19.874;2024-02-28T08:07:22;100688.37;;;12.90;100.00
62942;BME280;49042;47.318;19.874;2024-02-28T08:10:24;100685.03;;;12.62;100.00
62942;BME280;49042;47.318;19.874;2024-02-28T08:13:26;100690.09;;;12.54;100.00
62942;BME280;49042;47.318;19.874;2024-02-28T08:16:30;100689.34;;;12.60;100.00
62942;BME280;49042;47.318;19.874;2024-02-28T08:19:33;100694.44;;;12.53;100.00
62942;BME280;49042;47.318;19.874;2024-02-28T08:22:36;100699.69;;;12.55;100.00
62942;BME280;49042;47.318;19.874;2024-02-28T08:25:38;100701.53;;;12.58;100.00
62942;BME280;49042;47.318;19.874;2024-02-28T08:28:40;100701.59;;;12.95;100.00
62942;BME280;49042;47.318;19.874;2024-02-28T08:31:43;100708.75;;;13.02;100.00
62942;BME280;49042;47.318;19.874;2024-02-28T08:34:46;100709.72;;;13.06;100.00
62942;BME280;49042;47.318;19.874;2024-02-28T08:37:47;100706.38;;;13.12;100.00
62942;BME280;49042;47.318;19.874;2024-02-28T08:40:49;100708.69;;;13.74;100.00
62942;BME280;49042;47.318;19.874;2024-02-28T08:43:51;100708.53;;;14.06;100.00
62942;BME280;49042;47.318;19.874;2024-02-28T08:46:53;100724.84;;;14.84;98.94
62942;BME280;49042;47.318;19.874;2024-02-28T08:49:55;100711.56;;;14.75;96.29
62942;BME280;49042;47.318;19.874;2024-02-28T08:52:56;100721.09;;;15.19;93.08
62942;BME280;49042;47.318;19.874;2024-02-28T08:55:59;100722.63;;;15.61;88.92
62942;BME280;49042;47.318;19.874;2024-02-28T08:59:00;100724.44;;;15.65;86.11
62942;BME280;49042;47.318;19.874;2024-02-28T09:02:02;100730.06;;;15.33;90.24
62942;BME280;49042;47.318;19.874;2024-02-28T09:05:05;100729.81;;;15.74;86.59
62942;BME280;49042;47.318;19.874;2024-02-28T09:08:07;100727.47;;;15.98;82.44
62942;BME280;49042;47.318;19.874;2024-02-28T09:11:13;100731.56;;;16.43;78.21
62942;BME280;49042;47.318;19.874;2024-02-28T09:14:15;100727.00;;;16.27;77.62
62942;BME280;49042;47.318;19.874;2024-02-28T09:17:16;100719.44;;;16.57;77.75
62942;BME280;49042;47.318;19.874;2024-02-28T09:20:18;100721.87;;;15.73;81.95
62942;BME280;49042;47.318;19.874;2024-02-28T09:23:20;100724.09;;;16.84;73.81
62942;BME280;49042;47.318;19.874;2024-02-28T09:26:22;100719.22;;;17.29;69.19
62942;BME280;49042;47.318;19.874;2024-02-28T09:29:24;100719.41;;;17.54;66.98
62942;BME280;49042;47.318;19.874;2024-02-28T09:32:26;100726.97;;;19.00;58.56
62942;BME280;49042;47.318;19.874;2024-02-28T09:35:27;100721.63;;;18.64;58.47
62942;BME280;49042;47.318;19.874;2024-02-28T09:38:29;100724.28;;;18.58;59.91
62942;BME280;49042;47.318;19.874;2024-02-28T09:41:33;100726.06;;;18.86;59.97
62942;BME280;49042;47.318;19.874;2024-02-28T09:44:36;100719.91;;;18.98;60.70
62942;BME280;49042;47.318;19.874;2024-02-28T09:47:39;100711.75;;;18.08;60.69
62942;BME280;49042;47.318;19.874;2024-02-28T09:50:41;100715.50;;;19.09;57.72
62942;BME280;49042;47.318;19.874;2024-02-28T09:53:44;100717.25;;;18.76;59.46
62942;BME280;49042;47.318;19.874;2024-02-28T09:56:47;100724.34;;;21.26;52.19
62942;BME280;49042;47.318;19.874;2024-02-28T09:59:49;100723.69;;;20.92;50.29
62942;BME280;49042;47.318;19.874;2024-02-28T10:02:57;100721.94;;;20.90;50.60
62942;BME280;49042;47.318;19.874;2024-02-28T10:05:59;100724.72;;;21.74;46.99
62942;BME280;49042;47.318;19.874;2024-02-28T10:09:06;100711.53;;;23.51;42.83
62942;BME280;49042;47.318;19.874;2024-02-28T10:12:09;100715.47;;;25.37;39.63
62942;BME280;49042;47.318;19.874;2024-02-28T10:15:11;100716.03;;;26.43;35.83
62942;BME280;49042;47.318;19.874;2024-02-28T10:18:13;100721.91;;;26.55;35.63
62942;BME280;49042;47.318;19.874;2024-02-28T10:21:15;100724.06;;;26.99;33.52
62942;BME280;49042;47.318;19.874;2024-02-28T10:24:17;100728.84;;;27.16;32.15
62942;BME280;49042;47.318;19.874;2024-02-28T10:27:19;100728.75;;;29.93;29.18
62942;BME280;49042;47.318;19.874;2024-02-28T10:30:21;100725.53;;;27.61;31.23
62942;BME280;49042;47.318;19.874;2024-02-28T10:33:26;100733.94;;;28.01;30.71
62942;BME280;49042;47.318;19.874;2024-02-28T10:36:32;100727.25;;;29.67;29.70
62942;BME280;49042;47.318;19.874;2024-02-28T10:39:34;100730.69;;;30.29;28.77
62942;BME280;49042;47.318;19.874;2024-02-28T10:42:37;100734.88;;;29.15;30.11
62942;BME280;49042;47.318;19.874;2024-02-28T10:45:42;100726.06;;;28.43;29.75
62942;BME280;49042;47.318;19.874;2024-02-28T10:49:05;100724.38;;;32.73;26.27
62942;BME280;49042;47.318;19.874;2024-02-28T10:52:08;100724.09;;;31.96;25.47
62942;BME280;49042;47.318;19.874;2024-02-28T10:55:13;100721.00;;;32.21;25.42
62942;BME280;49042;47.318;19.874;2024-02-28T10:58:16;100723.16;;;33.24;24.42
62942;BME280;49042;47.318;19.874;2024-02-28T11:01:20;100722.63;;;31.91;25.34
62942;BME280;49042;47.318;19.874;2024-02-28T11:04:23;100720.81;;;32.08;24.98
62942;BME280;49042;47.318;19.874;2024-02-28T11:07:26;100724.69;;;31.51;26.40
62942;BME280;49042;47.318;19.874;2024-02-28T11:10:31;100719.91;;;30.85;26.30
62942;BME280;49042;47.318;19.874;2024-02-28T11:13:34;100722.03;;;30.61;26.53
62942;BME280;49042;47.318;19.874;2024-02-28T11:16:36;100718.50;;;30.60;26.55
62942;BME280;49042;47.318;19.874;2024-02-28T11:19:39;100724.63;;;30.99;26.44
62942;BME280;49042;47.318;19.874;2024-02-28T11:22:40;100717.31;;;30.84;25.96
62942;BME280;49042;47.318;19.874;2024-02-28T11:25:42;100722.66;;;29.28;28.07
62942;BME280;49042;47.318;19.874;2024-02-28T11:28:44;100715.41;;;28.87;28.26
62942;BME280;49042;47.318;19.874;2024-02-28T11:31:46;100717.00;;;28.46;29.82
62942;BME280;49042;47.318;19.874;2024-02-28T11:34:47;100724.00;;;29.79;27.40
62942;BME280;49042;47.318;19.874;2024-02-28T11:37:49;100720.06;;;31.19;26.29
62942;BME280;49042;47.318;19.874;2024-02-28T11:40:55;100712.41;;;30.74;25.93
62942;BME280;49042;47.318;19.874;2024-02-28T11:43:57;100713.44;;;29.96;26.83
62942;BME280;49042;47.318;19.874;2024-02-28T11:46:59;100712.06;;;30.06;27.08
62942;BME280;49042;47.318;19.874;2024-02-28T11:50:02;100715.63;;;31.52;26.25
62942;BME280;49042;47.318;19.874;2024-02-28T11:53:08;100713.62;;;31.56;26.21
62942;BME280;49042;47.318;19.874;2024-02-28T11:56:09;100706.53;;;30.66;26.75
62942;BME280;49042;47.318;19.874;2024-02-28T11:59:11;100708.19;;;29.92;27.49
62942;BME280;49042;47.318;19.874;2024-02-28T12:02:13;100712.53;;;28.47;28.57
62942;BME280;49042;47.318;19.874;2024-02-28T12:05:15;100707.16;;;27.50;29.96
62942;BME280;49042;47.318;19.874;2024-02-28T12:08:18;100708.28;;;27.19;29.90
62942;BME280;49042;47.318;19.874;2024-02-28T12:11:20;100706.19;;;26.72;31.82
62942;BME280;49042;47.318;19.874;2024-02-28T12:14:22;100708.19;;;26.93;31.61
62942;BME280;49042;47.318;19.874;2024-02-28T12:17:25;100705.09;;;27.33;30.56
62942;BME280;49042;47.318;19.874;2024-02-28T12:20:27;100710.12;;;27.92;29.79
62942;BME280;49042;47.318;19.874;2024-02-28T12:23:29;100710.25;;;29.03;29.18
62942;BME280;49042;47.318;19.874;2024-02-28T12:26:30;100700.38;;;28.83;28.59
62942;BME280;49042;47.318;19.874;2024-02-28T12:29:32;100693.47;;;28.08;29.95
62942;BME280;49042;47.318;19.874;2024-02-28T12:32:34;100690.81;;;27.34;31.04
62942;BME280;49042;47.318;19.874;2024-02-28T12:35:36;100685.97;;;28.63;29.27
62942;BME280;49042;47.318;19.874;2024-02-28T12:38:38;100704.31;;;28.95;28.89
62942;BME280;49042;47.318;19.874;2024-02-28T12:41:40;100696.19;;;28.75;29.34
62942;BME280;49042;47.318;19.874;2024-02-28T12:44:42;100698.00;;;28.52;29.32
62942;BME280;49042;47.318;19.874;2024-02-28T12:47:48;100690.00;;;28.06;29.91
62942;BME280;49042;47.318;19.874;2024-02-28T12:50:51;100684.41;;;27.11;31.55
62942;BME280;49042;47.318;19.874;2024-02-28T12:53:53;100688.03;;;28.33;30.15
62942;BME280;49042;47.318;19.874;2024-02-28T12:56:57;100687.72;;;29.28;28.87
62942;BME280;49042;47.318;19.874;2024-02-28T13:00:00;100689.00;;;28.55;29.27
62942;BME280;49042;47.318;19.874;2024-02-28T13:03:03;100692.34;;;29.65;28.43
62942;BME280;49042;47.318;19.874;2024-02-28T13:06:05;100691.63;;;28.78;29.27
62942;BME280;49042;47.318;19.874;2024-02-28T13:09:06;100684.94;;;27.72;29.91
62942;BME280;49042;47.318;19.874;2024-02-28T13:12:14;100689.91;;;28.07;29.91
62942;BME280;49042;47.318;19.874;2024-02-28T13:15:16;100695.66;;;28.88;29.44
62942;BME280;49042;47.318;19.874;2024-02-28T13:18:18;100695.63;;;28.44;29.74
62942;BME280;49042;47.318;19.874;2024-02-28T13:21:20;100698.28;;;26.97;31.26
62942;BME280;49042;47.318;19.874;2024-02-28T13:24:22;100692.19;;;27.70;31.04
62942;BME280;49042;47.318;19.874;2024-02-28T13:27:24;100697.59;;;27.68;30.42
62942;BME280;49042;47.318;19.874;2024-02-28T13:30:26;100691.03;;;26.44;32.15
62942;BME280;49042;47.318;19.874;2024-02-28T13:33:28;100687.63;;;27.72;31.38
62942;BME280;49042;47.318;19.874;2024-02-28T13:36:30;100681.06;;;28.28;30.54
62942;BME280;49042;47.318;19.874;2024-02-28T13:39:34;100674.47;;;27.42;31.50
62942;BME280;49042;47.318;19.874;2024-02-28T13:42:36;100669.72;;;28.21;30.11
62942;BME280;49042;47.318;19.874;2024-02-28T13:45:39;100676.41;;;28.33;30.74
62942;BME280;49042;47.318;19.874;2024-02-28T13:48:45;100671.97;;;28.77;29.97
62942;BME280;49042;47.318;19.874;2024-02-28T13:51:47;100668.13;;;27.93;30.34
62942;BME280;49042;47.318;19.874;2024-02-28T13:54:51;100674.75;;;28.53;29.57
62942;BME280;49042;47.318;19.874;2024-02-28T13:57:53;100675.16;;;27.71;30.96
62942;BME280;49042;47.318;19.874;2024-02-28T14:00:55;100667.50;;;28.32;30.47
62942;BME280;49042;47.318;19.874;2024-02-28T14:03:57;100665.50;;;28.60;29.69
62942;BME280;49042;47.318;19.874;2024-02-28T14:06:59;100663.47;;;27.74;30.72
62942;BME280;49042;47.318;19.874;2024-02-28T14:10:01;100667.37;;;28.36;30.11
62942;BME280;49042;47.318;19.874;2024-02-28T14:13:03;100653.56;;;27.76;30.94
62942;BME280;49042;47.318;19.874;2024-02-28T14:16:05;100657.56;;;25.39;33.75
62942;BME280;49042;47.318;19.874;2024-02-28T14:19:07;100657.69;;;25.34;34.18
62942;BME280;49042;47.318;19.874;2024-02-28T14:22:09;100661.13;;;25.05;35.20
62942;BME280;49042;47.318;19.874;2024-02-28T14:25:14;100659.41;;;25.37;34.53
62942;BME280;49042;47.318;19.874;2024-02-28T14:28:16;100656.81;;;25.66;34.21
62942;BME280;49042;47.318;19.874;2024-02-28T14:31:21;100656.66;;;25.72;34.25
62942;BME280;49042;47.318;19.874;2024-02-28T14:34:23;100661.00;;;24.36;36.66
62942;BME280;49042;47.318;19.874;2024-02-28T14:37:25;100672.25;;;24.49;36.30
62942;BME280;49042;47.318;19.874;2024-02-28T14:40:27;100662.50;;;23.16;38.24
62942;BME280;49042;47.318;19.874;2024-02-28T14:43:29;100664.53;;;23.01;39.43
62942;BME280;49042;47.318;19.874;2024-02-28T14:46:31;100668.31;;;22.87;39.56
62942;BME280;49042;47.318;19.874;2024-02-28T14:49:33;100661.88;;;22.44;40.37
62942;BME280;49042;47.318;19.874;2024-02-28T14:52:38;100665.78;;;22.79;40.50
62942;BME280;49042;47.318;19.874;2024-02-28T14:55:40;100670.47;;;22.01;40.92
62942;BME280;49042;47.318;19.874;2024-02-28T14:58:42;100668.47;;;22.18;41.97
62942;BME280;49042;47.318;19.874;2024-02-28T15:01:43;100670.56;;;21.90;43.19
62942;BME280;49042;47.318;19.874;2024-02-28T15:04:45;100671.88;;;21.55;44.20
62942;BME280;49042;47.318;19.874;2024-02-28T15:07:47;100674.09;;;21.08;45.46
62942;BME280;49042;47.318;19.874;2024-02-28T15:10:50;100674.03;;;21.16;45.19
62942;BME280;49042;47.318;19.874;2024-02-28T15:13:54;100679.03;;;20.39;47.29
62942;BME280;49042;47.318;19.874;2024-02-28T15:16:55;100679.12;;;20.09;48.59
62942;BME280;49042;47.318;19.874;2024-02-28T15:19:57;100674.87;;;19.68;50.57
62942;BME280;49042;47.318;19.874;2024-02-28T15:22:59;100679.38;;;19.33;52.18
62942;BME280;49042;47.318;19.874;2024-02-28T15:26:01;100684.69;;;19.00;55.89
62942;BME280;49042;47.318;19.874;2024-02-28T15:29:02;100678.50;;;19.03;56.77
62942;BME280;49042;47.318;19.874;2024-02-28T15:32:04;100674.09;;;18.67;61.08
62942;BME280;49042;47.318;19.874;2024-02-28T15:35:07;100676.66;;;18.34;63.64
62942;BME280;49042;47.318;19.874;2024-02-28T15:38:09;100680.06;;;18.02;68.34